sensor_id;sensor_type;location;lat;lon;timestamp;pressure;altitude;pressure_sealevel;temperature;humidity
61035;BME280;46916;40.564;-7.958;2022-12-24T00:00:39;97981.34;;;13.69;84.44
61035;BME280;46916;40.564;-7.958;2022-12-24T00:02:40;97984.81;;;13.69;84.54
61035;BME280;46916;40.564;-7.958;2022-12-24T00:04:40;97977.72;;;13.70;84.11
61035;BME280;46916;40.564;-7.958;2022-12-24T00:06:41;97985.63;;;13.70;83.69
61035;BME280;46916;40.564;-7.958;2022-12-24T00:08:42;97983.00;;;13.70;83.51
61035;BME280;46916;40.564;-7.958;2022-12-24T00:10:43;97981.19;;;13.70;83.54
61035;BME280;46916;40.564;-7.958;2022-12-24T00:12:43;97965.66;;;13.67;83.84
61035;BME280;46916;40.564;-7.958;2022-12-24T00:14:44;97967.47;;;13.67;84.05
61035;BME280;46916;40.564;-7.958;2022-12-24T00:16:44;97968.44;;;13.66;84.09
61035;BME280;46916;40.564;-7.958;2022-12-24T00:18:45;97969.53;;;13.63;84.35
61035;BME280;46916;40.564;-7.958;2022-12-24T00:20:47;97964.41;;;13.61;84.38
61035;BME280;46916;40.564;-7.958;2022-12-24T00:22:48;97963.03;;;13.57;84.41
61035;BME280;46916;40.564;-7.958;2022-12-24T00:24:49;97963.03;;;13.57;84.42
61035;BME280;46916;40.564;-7.958;2022-12-24T00:26:50;97967.59;;;13.55;84.27
61035;BME280;46916;40.564;-7.958;2022-12-24T00:28:50;97968.28;;;13.57;84.19
61035;BME280;46916;40.564;-7.958;2022-12-24T00:30:51;97972.56;;;13.58;84.13
61035;BME280;46916;40.564;-7.958;2022-12-24T00:32:52;97971.75;;;13.58;84.10
61035;BME280;46916;40.564;-7.958;2022-12-24T00:34:52;97969.81;;;13.60;84.10
61035;BME280;46916;40.564;-7.958;2022-12-24T00:36:53;97969.00;;;13.59;84.07
61035;BME280;46916;40.564;-7.958;2022-12-24T00:38:53;97969.13;;;13.58;84.00
61035;BME280;46916;40.564;-7.958;2022-12-24T00:40:59;97969.38;;;13.55;84.25
61035;BME280;46916;40.564;-7.958;2022-12-24T00:43:00;97970.34;;;13.54;84.17
61035;BME280;46916;40.564;-7.958;2022-12-24T00:45:00;97964.41;;;13.52;84.14
61035;BME280;46916;40.564;-7.958;2022-12-24T00:47:01;97973.25;;;13.51;84.20
61035;BME280;46916;40.564;-7.958;2022-12-24T00:49:03;97964.53;;;13.50;83.93
61035;BME280;46916;40.564;-7.958;2022-12-24T00:51:04;97969.22;;;13.47;83.58
61035;BME280;46916;40.564;-7.958;2022-12-24T00:53:04;97965.19;;;13.43;83.89
61035;BME280;46916;40.564;-7.958;2022-12-24T00:55:05;97969.22;;;13.37;84.31
61035;BME280;46916;40.564;-7.958;2022-12-24T00:57:06;97963.25;;;13.35;84.49
61035;BME280;46916;40.564;-7.958;2022-12-24T00:59:07;97967.66;;;13.34;84.75
61035;BME280;46916;40.564;-7.958;2022-12-24T01:01:07;97969.47;;;13.34;84.81
61035;BME280;46916;40.564;-7.958;2022-12-24T01:03:08;97965.03;;;13.34;85.06
61035;BME280;46916;40.564;-7.958;2022-12-24T01:05:09;97969.63;;;13.32;84.89
61035;BME280;46916;40.564;-7.958;2022-12-24T01:07:10;97970.44;;;13.33;85.12
61035;BME280;46916;40.564;-7.958;2022-12-24T01:09:11;97967.81;;;13.33;84.96
61035;BME280;46916;40.564;-7.958;2022-12-24T01:11:12;97977.66;;;13.31;85.00
61035;BME280;46916;40.564;-7.958;2022-12-24T01:13:13;97964.19;;;13.34;85.03
61035;BME280;46916;40.564;-7.958;2022-12-24T01:15:15;97965.19;;;13.33;84.90
61035;BME280;46916;40.564;-7.958;2022-12-24T01:17:16;97962.94;;;13.28;85.07
61035;BME280;46916;40.564;-7.958;2022-12-24T01:19:17;97961.41;;;13.26;85.26
61035;BME280;46916;40.564;-7.958;2022-12-24T01:21:17;97962.81;;;13.30;85.16
61035;BME280;46916;40.564;-7.958;2022-12-24T01:23:18;97950.44;;;13.21;85.55
61035;BME280;46916;40.564;-7.958;2022-12-24T01:25:19;97943.50;;;13.20;85.54
61035;BME280;46916;40.564;-7.958;2022-12-24T01:27:19;97948.78;;;13.20;85.64
61035;BME280;46916;40.564;-7.958;2022-12-24T01:29:20;97939.09;;;13.20;85.41
61035;BME280;46916;40.564;-7.958;2022-12-24T01:31:21;97941.84;;;13.19;85.52
61035;BME280;46916;40.564;-7.958;2022-12-24T01:33:21;97937.25;;;13.11;85.88
61035;BME280;46916;40.564;-7.958;2022-12-24T01:35:22;97937.53;;;13.08;86.33
61035;BME280;46916;40.564;-7.958;2022-12-24T01:37:23;97939.19;;;13.09;86.40
61035;BME280;46916;40.564;-7.958;2022-12-24T01:39:23;97940.28;;;13.06;86.14
61035;BME280;46916;40.564;-7.958;2022-12-24T01:41:24;97945.25;;;13.09;86.04
61035;BME280;46916;40.564;-7.958;2022-12-24T01:43:44;97948.19;;;13.06;85.75
61035;BME280;46916;40.564;-7.958;2022-12-24T01:47:52;97947.63;;;13.03;86.01
61035;BME280;46916;40.564;-7.958;2022-12-24T01:49:57;97942.34;;;13.03;85.63
61035;BME280;46916;40.564;-7.958;2022-12-24T01:52:04;97940.81;;;13.00;85.33
61035;BME280;46916;40.564;-7.958;2022-12-24T01:54:25;97937.53;;;13.08;84.75
61035;BME280;46916;40.564;-7.958;2022-12-24T01:56:29;97941.94;;;13.07;85.17
61035;BME280;46916;40.564;-7.958;2022-12-24T01:58:35;97946.50;;;13.05;85.20
61035;BME280;46916;40.564;-7.958;2022-12-24T02:00:40;97943.59;;;13.08;85.22
61035;BME280;46916;40.564;-7.958;2022-12-24T02:02:43;97949.69;;;13.09;85.32
61035;BME280;46916;40.564;-7.958;2022-12-24T02:05:25;97941.41;;;13.13;84.94
61035;BME280;46916;40.564;-7.958;2022-12-24T02:07:28;97947.22;;;13.17;84.75
61035;BME280;46916;40.564;-7.958;2022-12-24T02:09:28;97950.69;;;13.18;84.61
61035;BME280;46916;40.564;-7.958;2022-12-24T02:11:29;97944.88;;;13.14;84.57
61035;BME280;46916;40.564;-7.958;2022-12-24T02:13:30;97942.22;;;13.14;84.77
61035;BME280;46916;40.564;-7.958;2022-12-24T02:21:09;97934.88;;;13.08;84.92
61035;BME280;46916;40.564;-7.958;2022-12-24T02:23:37;97937.38;;;13.09;85.20
61035;BME280;46916;40.564;-7.958;2022-12-24T02:28:43;97928.97;;;13.16;85.34
61035;BME280;46916;40.564;-7.958;2022-12-24T02:31:12;97931.34;;;13.19;85.05
61035;BME280;46916;40.564;-7.958;2022-12-24T02:33:37;97933.69;;;13.22;85.06
61035;BME280;46916;40.564;-7.958;2022-12-24T02:38:12;97933.00;;;13.20;85.08
61035;BME280;46916;40.564;-7.958;2022-12-24T02:40:22;97933.00;;;13.20;85.16
61035;BME280;46916;40.564;-7.958;2022-12-24T02:42:30;97930.47;;;13.18;85.51
61035;BME280;46916;40.564;-7.958;2022-12-24T02:46:44;97919.13;;;13.18;85.09
61035;BME280;46916;40.564;-7.958;2022-12-24T02:48:47;97918.31;;;13.17;85.23
61035;BME280;46916;40.564;-7.958;2022-12-24T02:50:56;97918.44;;;13.16;85.42
61035;BME280;46916;40.564;-7.958;2022-12-24T02:52:58;97920.38;;;13.13;85.75
61035;BME280;46916;40.564;-7.958;2022-12-24T02:55:02;97911.66;;;13.13;85.72
61035;BME280;46916;40.564;-7.958;2022-12-24T02:57:24;97911.66;;;13.13;85.78
61035;BME280;46916;40.564;-7.958;2022-12-24T03:02:01;97907.53;;;13.20;85.49
61035;BME280;46916;40.564;-7.958;2022-12-24T03:09:00;97907.72;;;13.28;84.72
61035;BME280;46916;40.564;-7.958;2022-12-24T03:11:10;97904.09;;;13.29;84.76
61035;BME280;46916;40.564;-7.958;2022-12-24T03:13:16;97904.81;;;13.31;84.68
61035;BME280;46916;40.564;-7.958;2022-12-24T03:15:21;97903.00;;;13.32;85.26
61035;BME280;46916;40.564;-7.958;2022-12-24T03:17:22;97901.34;;;13.31;85.43
61035;BME280;46916;40.564;-7.958;2022-12-24T03:19:23;97901.22;;;13.32;85.52
61035;BME280;46916;40.564;-7.958;2022-12-24T03:21:30;97900.66;;;13.29;85.77
61035;BME280;46916;40.564;-7.958;2022-12-24T03:23:33;97901.47;;;13.29;85.88
61035;BME280;46916;40.564;-7.958;2022-12-24T03:25:38;97902.31;;;13.30;85.98
61035;BME280;46916;40.564;-7.958;2022-12-24T03:27:40;97896.09;;;13.31;85.97
61035;BME280;46916;40.564;-7.958;2022-12-24T03:29:40;97906.63;;;13.31;85.97
61035;BME280;46916;40.564;-7.958;2022-12-24T03:31:47;97895.81;;;13.34;85.94
61035;BME280;46916;40.564;-7.958;2022-12-24T03:33:49;97901.06;;;13.34;85.94
61035;BME280;46916;40.564;-7.958;2022-12-24T03:35:50;97897.50;;;13.35;85.75
61035;BME280;46916;40.564;-7.958;2022-12-24T03:37:50;97887.78;;;13.35;85.87
61035;BME280;46916;40.564;-7.958;2022-12-24T03:39:51;97886.97;;;13.35;85.74
61035;BME280;46916;40.564;-7.958;2022-12-24T03:41:52;97889.31;;;13.38;85.64
61035;BME280;46916;40.564;-7.958;2022-12-24T03:43:53;97885.00;;;13.37;85.54
61035;BME280;46916;40.564;-7.958;2022-12-24T03:45:53;97878.78;;;13.38;85.58
61035;BME280;46916;40.564;-7.958;2022-12-24T03:47:54;97874.22;;;13.40;85.45
61035;BME280;46916;40.564;-7.958;2022-12-24T03:49:55;97874.91;;;13.42;85.51
61035;BME280;46916;40.564;-7.958;2022-12-24T03:51:55;97873.97;;;13.43;85.40
61035;BME280;46916;40.564;-7.958;2022-12-24T03:53:56;97865.22;;;13.43;85.42
61035;BME280;46916;40.564;-7.958;2022-12-24T03:55:57;97864.38;;;13.42;85.40
61035;BME280;46916;40.564;-7.958;2022-12-24T03:57:58;97865.91;;;13.45;85.42
61035;BME280;46916;40.564;-7.958;2022-12-24T03:59:58;97858.19;;;13.43;84.10
61035;BME280;46916;40.564;-7.958;2022-12-24T04:01:59;97864.84;;;13.47;84.35
61035;BME280;46916;40.564;-7.958;2022-12-24T04:04:00;97855.41;;;13.45;84.22
61035;BME280;46916;40.564;-7.958;2022-12-24T04:06:06;97849.56;;;13.41;84.19
61035;BME280;46916;40.564;-7.958;2022-12-24T04:08:08;97851.38;;;13.41;84.05
61035;BME280;46916;40.564;-7.958;2022-12-24T04:10:08;97853.19;;;13.40;83.86
61035;BME280;46916;40.564;-7.958;2022-12-24T04:12:09;97847.09;;;13.40;84.27
61035;BME280;46916;40.564;-7.958;2022-12-24T04:14:10;97842.66;;;13.40;84.24
61035;BME280;46916;40.564;-7.958;2022-12-24T04:16:13;97840.84;;;13.41;84.14
61035;BME280;46916;40.564;-7.958;2022-12-24T04:18:14;97844.31;;;13.41;84.02
61035;BME280;46916;40.564;-7.958;2022-12-24T04:20:15;97840.72;;;13.42;83.95
61035;BME280;46916;40.564;-7.958;2022-12-24T04:22:15;97831.00;;;13.43;83.78
61035;BME280;46916;40.564;-7.958;2022-12-24T04:24:16;97828.69;;;13.40;83.91
61035;BME280;46916;40.564;-7.958;2022-12-24T04:26:17;97829.91;;;13.35;84.28
61035;BME280;46916;40.564;-7.958;2022-12-24T04:28:18;97831.72;;;13.35;84.28
61035;BME280;46916;40.564;-7.958;2022-12-24T04:30:18;97826.56;;;13.33;84.52
61035;BME280;46916;40.564;-7.958;2022-12-24T04:32:19;97826.03;;;13.30;84.54
61035;BME280;46916;40.564;-7.958;2022-12-24T04:34:19;97827.81;;;13.29;84.91
61035;BME280;46916;40.564;-7.958;2022-12-24T04:36:21;97824.94;;;13.32;84.83
61035;BME280;46916;40.564;-7.958;2022-12-24T04:38:22;97822.44;;;13.31;84.63
61035;BME280;46916;40.564;-7.958;2022-12-24T04:40:24;97823.38;;;13.30;84.82
61035;BME280;46916;40.564;-7.958;2022-12-24T04:42:24;97817.44;;;13.28;84.80
61035;BME280;46916;40.564;-7.958;2022-12-24T04:44:25;97819.09;;;13.29;84.71
61035;BME280;46916;40.564;-7.958;2022-12-24T04:46:27;97818.84;;;13.32;84.59
61035;BME280;46916;40.564;-7.958;2022-12-24T04:48:32;97821.31;;;13.33;84.64
61035;BME280;46916;40.564;-7.958;2022-12-24T04:50:32;97814.25;;;13.34;84.61
61035;BME280;46916;40.564;-7.958;2022-12-24T04:52:33;97814.97;;;13.36;84.27
61035;BME280;46916;40.564;-7.958;2022-12-24T04:54:34;97811.50;;;13.35;84.24
61035;BME280;46916;40.564;-7.958;2022-12-24T04:56:35;97804.44;;;13.36;84.20
61035;BME280;46916;40.564;-7.958;2022-12-24T04:58:36;97802.47;;;13.38;84.01
61035;BME280;46916;40.564;-7.958;2022-12-24T05:00:37;97793.66;;;13.39;83.53
61035;BME280;46916;40.564;-7.958;2022-12-24T05:02:38;97798.91;;;13.39;83.43
61035;BME280;46916;40.564;-7.958;2022-12-24T05:04:38;97797.09;;;13.40;83.72
61035;BME280;46916;40.564;-7.958;2022-12-24T05:06:39;97791.84;;;13.40;83.51
61035;BME280;46916;40.564;-7.958;2022-12-24T05:08:40;97790.31;;;13.37;83.49
61035;BME280;46916;40.564;-7.958;2022-12-24T05:10:41;97781.44;;;13.38;83.62
61035;BME280;46916;40.564;-7.958;2022-12-24T05:12:42;97780.75;;;13.36;83.64
61035;BME280;46916;40.564;-7.958;2022-12-24T05:14:42;97782.00;;;13.32;83.60
61035;BME280;46916;40.564;-7.958;2022-12-24T05:16:43;97773.81;;;13.25;83.55
61035;BME280;46916;40.564;-7.958;2022-12-24T05:18:44;97771.34;;;13.24;83.58
61035;BME280;46916;40.564;-7.958;2022-12-24T05:20:45;97764.53;;;13.21;83.66
61035;BME280;46916;40.564;-7.958;2022-12-24T05:22:46;97761.34;;;13.18;83.84
61035;BME280;46916;40.564;-7.958;2022-12-24T05:25:05;97764.25;;;13.14;84.16
61035;BME280;46916;40.564;-7.958;2022-12-24T05:27:25;97759.25;;;13.11;84.21
61035;BME280;46916;40.564;-7.958;2022-12-24T05:29:25;97762.72;;;13.12;84.17
61035;BME280;46916;40.564;-7.958;2022-12-24T05:31:28;97757.63;;;13.10;84.16
61035;BME280;46916;40.564;-7.958;2022-12-24T05:33:29;97751.66;;;13.08;84.17
61035;BME280;46916;40.564;-7.958;2022-12-24T05:35:30;97764.78;;;13.08;84.16
61035;BME280;46916;40.564;-7.958;2022-12-24T05:37:30;97759.81;;;13.05;84.34
61035;BME280;46916;40.564;-7.958;2022-12-24T05:39:31;97751.91;;;13.05;84.32
61035;BME280;46916;40.564;-7.958;2022-12-24T05:41:32;97756.50;;;13.03;84.45
61035;BME280;46916;40.564;-7.958;2022-12-24T05:43:32;97757.47;;;13.02;84.66
61035;BME280;46916;40.564;-7.958;2022-12-24T05:45:33;97759.25;;;13.02;84.90
61035;BME280;46916;40.564;-7.958;2022-12-24T05:47:34;97749.59;;;13.02;84.79
61035;BME280;46916;40.564;-7.958;2022-12-24T05:49:34;97743.47;;;13.02;84.74
61035;BME280;46916;40.564;-7.958;2022-12-24T05:51:35;97750.41;;;13.03;85.02
61035;BME280;46916;40.564;-7.958;2022-12-24T05:53:36;97746.81;;;13.04;84.93
61035;BME280;46916;40.564;-7.958;2022-12-24T05:55:37;97745.97;;;13.03;84.74
61035;BME280;46916;40.564;-7.958;2022-12-24T05:57:39;97749.59;;;13.02;84.87
61035;BME280;46916;40.564;-7.958;2022-12-24T05:59:40;97750.53;;;13.01;84.91
61035;BME280;46916;40.564;-7.958;2022-12-24T06:01:41;97750.53;;;13.01;85.09
61035;BME280;46916;40.564;-7.958;2022-12-24T06:03:46;97753.03;;;13.03;85.54
61035;BME280;46916;40.564;-7.958;2022-12-24T06:06:00;97743.34;;;13.03;85.56
61035;BME280;46916;40.564;-7.958;2022-12-24T06:08:01;97743.34;;;13.03;85.68
61035;BME280;46916;40.564;-7.958;2022-12-24T06:10:02;97741.53;;;13.04;85.69
61035;BME280;46916;40.564;-7.958;2022-12-24T06:12:02;97744.19;;;13.04;85.83
61035;BME280;46916;40.564;-7.958;2022-12-24T06:14:03;97742.38;;;13.04;85.86
61035;BME280;46916;40.564;-7.958;2022-12-24T06:16:06;97737.94;;;13.05;85.83
61035;BME280;46916;40.564;-7.958;2022-12-24T06:18:07;97726.59;;;13.04;85.59
61035;BME280;46916;40.564;-7.958;2022-12-24T06:20:08;97729.38;;;13.03;85.41
61035;BME280;46916;40.564;-7.958;2022-12-24T06:22:09;97722.31;;;13.03;85.14
61035;BME280;46916;40.564;-7.958;2022-12-24T06:24:09;97721.91;;;12.98;85.27
61035;BME280;46916;40.564;-7.958;2022-12-24T06:26:13;97716.75;;;12.97;85.39
61035;BME280;46916;40.564;-7.958;2022-12-24T06:28:14;97722.84;;;12.97;85.30
61035;BME280;46916;40.564;-7.958;2022-12-24T06:30:15;97712.34;;;12.97;85.45
61035;BME280;46916;40.564;-7.958;2022-12-24T06:32:16;97723.81;;;12.96;85.67
61035;BME280;46916;40.564;-7.958;2022-12-24T06:34:16;97722.16;;;12.95;85.81
61035;BME280;46916;40.564;-7.958;2022-12-24T06:36:23;97714.13;;;12.97;85.83
61035;BME280;46916;40.564;-7.958;2022-12-24T06:38:24;97720.94;;;12.99;85.75
61035;BME280;46916;40.564;-7.958;2022-12-24T06:40:25;97718.41;;;12.98;85.91
61035;BME280;46916;40.564;-7.958;2022-12-24T06:42:26;97721.91;;;12.98;86.34
61035;BME280;46916;40.564;-7.958;2022-12-24T06:44:27;97722.72;;;12.99;86.13
61035;BME280;46916;40.564;-7.958;2022-12-24T06:46:27;97722.72;;;12.99;86.23
61035;BME280;46916;40.564;-7.958;2022-12-24T06:48:28;97724.53;;;12.98;86.29
61035;BME280;46916;40.564;-7.958;2022-12-24T06:50:29;97724.38;;;13.00;86.22
61035;BME280;46916;40.564;-7.958;2022-12-24T06:52:30;97722.56;;;13.00;86.31
61035;BME280;46916;40.564;-7.958;2022-12-24T06:54:30;97717.31;;;13.00;85.95
61035;BME280;46916;40.564;-7.958;2022-12-24T06:56:31;97726.03;;;13.01;85.93
61035;BME280;46916;40.564;-7.958;2022-12-24T06:58:33;97721.91;;;12.98;86.09
61035;BME280;46916;40.564;-7.958;2022-12-24T07:00:34;97719.41;;;12.97;85.96
61035;BME280;46916;40.564;-7.958;2022-12-24T07:02:35;97721.19;;;12.96;85.79
61035;BME280;46916;40.564;-7.958;2022-12-24T07:04:38;97717.59;;;12.97;85.61
61035;BME280;46916;40.564;-7.958;2022-12-24T07:06:39;97723.00;;;12.96;85.94
61035;BME280;46916;40.564;-7.958;2022-12-24T07:08:41;97723.81;;;12.96;85.99
61035;BME280;46916;40.564;-7.958;2022-12-24T07:10:41;97721.91;;;12.98;86.15
61035;BME280;46916;40.564;-7.958;2022-12-24T07:12:43;97728.94;;;12.98;86.35
61035;BME280;46916;40.564;-7.958;2022-12-24T07:14:43;97729.22;;;12.95;86.82
61035;BME280;46916;40.564;-7.958;2022-12-24T07:16:44;97731.16;;;12.93;87.41
61035;BME280;46916;40.564;-7.958;2022-12-24T07:18:45;97721.75;;;12.90;87.68
61035;BME280;46916;40.564;-7.958;2022-12-24T07:20:46;97726.31;;;12.88;88.28
61035;BME280;46916;40.564;-7.958;2022-12-24T07:22:46;97724.66;;;12.87;88.64
61035;BME280;46916;40.564;-7.958;2022-12-24T07:24:47;97716.88;;;12.85;89.04
61035;BME280;46916;40.564;-7.958;2022-12-24T07:26:48;97730.03;;;12.85;89.02
61035;BME280;46916;40.564;-7.958;2022-12-24T07:28:48;97730.19;;;12.84;89.33
61035;BME280;46916;40.564;-7.958;2022-12-24T07:30:49;97728.78;;;12.80;89.51
61035;BME280;46916;40.564;-7.958;2022-12-24T07:32:50;97733.22;;;12.79;89.76
61035;BME280;46916;40.564;-7.958;2022-12-24T07:34:51;97731.41;;;12.80;89.74
61035;BME280;46916;40.564;-7.958;2022-12-24T07:36:51;97736.00;;;12.78;89.75
61035;BME280;46916;40.564;-7.958;2022-12-24T07:38:53;97740.38;;;12.77;89.72
61035;BME280;46916;40.564;-7.958;2022-12-24T07:40:54;97736.00;;;12.78;90.08
61035;BME280;46916;40.564;-7.958;2022-12-24T07:42:55;97731.00;;;12.75;90.16
61035;BME280;46916;40.564;-7.958;2022-12-24T07:44:56;97731.00;;;12.75;90.15
61035;BME280;46916;40.564;-7.958;2022-12-24T07:46:57;97731.97;;;12.74;90.29
61035;BME280;46916;40.564;-7.958;2022-12-24T07:48:57;97732.09;;;12.72;90.28
61035;BME280;46916;40.564;-7.958;2022-12-24T07:50:58;97739.28;;;12.70;90.54
61035;BME280;46916;40.564;-7.958;2022-12-24T07:52:59;97734.88;;;12.71;90.55
61035;BME280;46916;40.564;-7.958;2022-12-24T07:55:00;97747.84;;;12.72;90.78
61035;BME280;46916;40.564;-7.958;2022-12-24T07:57:00;97744.41;;;12.72;90.71
61035;BME280;46916;40.564;-7.958;2022-12-24T07:59:01;97743.44;;;12.73;90.84
61035;BME280;46916;40.564;-7.958;2022-12-24T08:01:02;97747.75;;;12.74;90.78
61035;BME280;46916;40.564;-7.958;2022-12-24T08:03:02;97746.06;;;12.73;90.88
61035;BME280;46916;40.564;-7.958;2022-12-24T08:05:03;97743.31;;;12.74;90.81
61035;BME280;46916;40.564;-7.958;2022-12-24T08:07:05;97754.66;;;12.75;91.02
61035;BME280;46916;40.564;-7.958;2022-12-24T08:09:06;97748.44;;;12.76;91.17
61035;BME280;46916;40.564;-7.958;2022-12-24T08:11:07;97750.06;;;12.77;91.19
61035;BME280;46916;40.564;-7.958;2022-12-24T08:13:08;97736.00;;;12.78;91.10
61035;BME280;46916;40.564;-7.958;2022-12-24T08:15:09;97737.66;;;12.79;90.99
61035;BME280;46916;40.564;-7.958;2022-12-24T08:17:09;97734.03;;;12.80;90.98
61035;BME280;46916;40.564;-7.958;2022-12-24T08:19:10;97736.53;;;12.81;90.97
61035;BME280;46916;40.564;-7.958;2022-12-24T08:21:11;97739.16;;;12.81;90.83
61035;BME280;46916;40.564;-7.958;2022-12-24T08:23:11;97739.03;;;12.83;90.88
61035;BME280;46916;40.564;-7.958;2022-12-24T08:25:12;97734.59;;;12.83;90.82
61035;BME280;46916;40.564;-7.958;2022-12-24T08:27:13;97738.88;;;12.84;90.94
61035;BME280;46916;40.564;-7.958;2022-12-24T08:29:13;97744.16;;;12.84;90.93
61035;BME280;46916;40.564;-7.958;2022-12-24T08:31:14;97747.47;;;12.86;90.98
61035;BME280;46916;40.564;-7.958;2022-12-24T08:33:15;97755.94;;;12.90;91.01
61035;BME280;46916;40.564;-7.958;2022-12-24T08:35:16;97758.56;;;12.90;90.65
61035;BME280;46916;40.564;-7.958;2022-12-24T08:37:17;97755.06;;;12.89;90.78
61035;BME280;46916;40.564;-7.958;2022-12-24T08:39:17;97751.63;;;12.89;90.52
61035;BME280;46916;40.564;-7.958;2022-12-24T08:41:18;97749.81;;;12.89;90.91
61035;BME280;46916;40.564;-7.958;2022-12-24T08:43:19;97748.88;;;12.91;90.70
61035;BME280;46916;40.564;-7.958;2022-12-24T08:45:20;97765.31;;;12.93;90.68
61035;BME280;46916;40.564;-7.958;2022-12-24T08:47:20;97754.81;;;12.93;90.44
61035;BME280;46916;40.564;-7.958;2022-12-24T08:49:21;97758.97;;;12.95;90.52
61035;BME280;46916;40.564;-7.958;2022-12-24T08:51:22;97757.84;;;12.98;90.71
61035;BME280;46916;40.564;-7.958;2022-12-24T08:53:23;97749.84;;;12.99;90.77
61035;BME280;46916;40.564;-7.958;2022-12-24T08:55:23;97758.41;;;13.01;90.82
61035;BME280;46916;40.564;-7.958;2022-12-24T08:57:24;97746.94;;;13.02;90.79
61035;BME280;46916;40.564;-7.958;2022-12-24T08:59:25;97753.59;;;13.06;90.94
61035;BME280;46916;40.564;-7.958;2022-12-24T09:01:25;97758.56;;;13.09;90.92
61035;BME280;46916;40.564;-7.958;2022-12-24T09:03:26;97756.75;;;13.10;90.96
61035;BME280;46916;40.564;-7.958;2022-12-24T09:05:27;97760.91;;;13.12;91.04
61035;BME280;46916;40.564;-7.958;2022-12-24T09:07:28;97751.09;;;13.14;91.11
61035;BME280;46916;40.564;-7.958;2022-12-24T09:09:29;97755.25;;;13.17;91.14
61035;BME280;46916;40.564;-7.958;2022-12-24T09:11:29;97757.59;;;13.20;90.96
61035;BME280;46916;40.564;-7.958;2022-12-24T09:13:31;97763.69;;;13.21;91.34
61035;BME280;46916;40.564;-7.958;2022-12-24T09:15:32;97764.44;;;13.23;91.33
61035;BME280;46916;40.564;-7.958;2022-12-24T09:17:34;97766.09;;;13.24;91.47
61035;BME280;46916;40.564;-7.958;2022-12-24T09:19:35;97763.19;;;13.27;91.50
61035;BME280;46916;40.564;-7.958;2022-12-24T09:21:35;97760.13;;;13.31;91.33
61035;BME280;46916;40.564;-7.958;2022-12-24T09:23:37;97765.41;;;13.31;91.22
61035;BME280;46916;40.564;-7.958;2022-12-24T09:25:42;97761.53;;;13.35;90.92
61035;BME280;46916;40.564;-7.958;2022-12-24T09:27:42;97765.38;;;13.41;90.91
61035;BME280;46916;40.564;-7.958;2022-12-24T09:29:43;97759.03;;;13.44;90.72
61035;BME280;46916;40.564;-7.958;2022-12-24T09:31:44;97763.16;;;13.46;90.69
61035;BME280;46916;40.564;-7.958;2022-12-24T09:33:46;97761.09;;;13.50;90.12
61035;BME280;46916;40.564;-7.958;2022-12-24T09:35:50;97762.72;;;13.51;90.02
61035;BME280;46916;40.564;-7.958;2022-12-24T09:37:50;97762.63;;;13.52;89.97
61035;BME280;46916;40.564;-7.958;2022-12-24T09:40:02;97760.66;;;13.54;89.91
61035;BME280;46916;40.564;-7.958;2022-12-24T09:44:40;97765.38;;;13.60;89.78
61035;BME280;46916;40.564;-7.958;2022-12-24T09:46:44;97762.75;;;13.60;90.00
61035;BME280;46916;40.564;-7.958;2022-12-24T09:48:51;97756.34;;;13.63;90.10
61035;BME280;46916;40.564;-7.958;2022-12-24T09:51:23;97756.06;;;13.66;90.18
61035;BME280;46916;40.564;-7.958;2022-12-24T09:55:51;97754.38;;;13.75;89.98
61035;BME280;46916;40.564;-7.958;2022-12-24T09:57:54;97747.75;;;13.80;89.91
61035;BME280;46916;40.564;-7.958;2022-12-24T09:59:56;97748.69;;;13.89;89.55
61035;BME280;46916;40.564;-7.958;2022-12-24T10:01:56;97746.03;;;13.99;88.93
61035;BME280;46916;40.564;-7.958;2022-12-24T10:04:01;97743.38;;;14.08;88.46
61035;BME280;46916;40.564;-7.958;2022-12-24T10:06:09;97733.22;;;14.13;87.38
61035;BME280;46916;40.564;-7.958;2022-12-24T10:09:06;97737.34;;;14.16;87.35
61035;BME280;46916;40.564;-7.958;2022-12-24T10:10:49;97731.38;;;14.24;85.87
61035;BME280;46916;40.564;-7.958;2022-12-24T10:13:28;97729.72;;;14.23;86.11
61035;BME280;46916;40.564;-7.958;2022-12-24T10:15:42;97733.16;;;14.33;86.38
61035;BME280;46916;40.564;-7.958;2022-12-24T10:17:51;97727.00;;;14.42;86.17
61035;BME280;46916;40.564;-7.958;2022-12-24T10:22:24;97725.66;;;14.66;85.45
61035;BME280;46916;40.564;-7.958;2022-12-24T10:24:33;97732.59;;;14.84;85.08
61035;BME280;46916;40.564;-7.958;2022-12-24T10:26:44;97723.44;;;15.06;83.88
61035;BME280;46916;40.564;-7.958;2022-12-24T10:29:01;97722.44;;;15.25;81.98
61035;BME280;46916;40.564;-7.958;2022-12-24T10:31:06;97718.94;;;15.43;81.86
61035;BME280;46916;40.564;-7.958;2022-12-24T10:33:46;97708.50;;;15.59;81.51
61035;BME280;46916;40.564;-7.958;2022-12-24T10:35:52;97708.63;;;15.75;80.84
61035;BME280;46916;40.564;-7.958;2022-12-24T10:37:54;97711.03;;;15.87;80.28
61035;BME280;46916;40.564;-7.958;2022-12-24T10:39:58;97707.81;;;16.01;79.92
61035;BME280;46916;40.564;-7.958;2022-12-24T10:42:00;97705.75;;;16.13;77.75
61035;BME280;46916;40.564;-7.958;2022-12-24T10:44:01;97711.06;;;16.21;77.76
61035;BME280;46916;40.564;-7.958;2022-12-24T10:46:07;97712.56;;;16.31;76.72
61035;BME280;46916;40.564;-7.958;2022-12-24T10:48:50;97705.16;;;16.35;75.60
61035;BME280;46916;40.564;-7.958;2022-12-24T10:50:55;97713.09;;;16.35;75.68
61035;BME280;46916;40.564;-7.958;2022-12-24T10:53:04;97717.72;;;16.33;76.25
61035;BME280;46916;40.564;-7.958;2022-12-24T10:57:25;97698.06;;;16.35;75.36
61035;BME280;46916;40.564;-7.958;2022-12-24T11:01:45;97701.50;;;16.28;75.54
61035;BME280;46916;40.564;-7.958;2022-12-24T11:03:59;97700.75;;;16.09;74.24
61035;BME280;46916;40.564;-7.958;2022-12-24T11:08:17;97693.06;;;15.90;74.99
61035;BME280;46916;40.564;-7.958;2022-12-24T11:10:22;97690.25;;;15.92;75.66
61035;BME280;46916;40.564;-7.958;2022-12-24T11:12:33;97685.97;;;15.91;76.04
61035;BME280;46916;40.564;-7.958;2022-12-24T11:14:36;97689.75;;;15.88;76.56
61035;BME280;46916;40.564;-7.958;2022-12-24T11:16:38;97685.91;;;15.82;75.75
61035;BME280;46916;40.564;-7.958;2022-12-24T11:18:45;97678.09;;;15.73;75.16
61035;BME280;46916;40.564;-7.958;2022-12-24T11:20:50;97676.81;;;15.59;74.37